sensor_id;sensor_type;location;lat;lon;timestamp;temperature;humidity
5792;DHT22;2922;53.482;10.006;2022-10-16T00:01:25;14.50;99.90
5792;DHT22;2922;53.482;10.006;2022-10-16T00:03:51;14.50;99.90
5792;DHT22;2922;53.482;10.006;2022-10-16T00:06:19;14.40;99.90
5792;DHT22;2922;53.482;10.006;2022-10-16T00:08:45;14.40;99.90
5792;DHT22;2922;53.482;10.006;2022-10-16T00:13:40;14.40;99.90
5792;DHT22;2922;53.482;10.006;2022-10-16T00:16:06;14.40;99.90
5792;DHT22;2922;53.482;10.006;2022-10-16T00:18:33;14.50;99.90
5792;DHT22;2922;53.482;10.006;2022-10-16T00:21:05;14.30;99.90
5792;DHT22;2922;53.482;10.006;2022-10-16T00:23:31;14.30;99.90
5792;DHT22;2922;53.482;10.006;2022-10-16T00:25:58;14.30;99.90
5792;DHT22;2922;53.482;10.006;2022-10-16T00:28:25;14.20;99.90
5792;DHT22;2922;53.482;10.006;2022-10-16T00:30:51;14.30;99.90
5792;DHT22;2922;53.482;10.006;2022-10-16T00:33:17;14.20;99.90
5792;DHT22;2922;53.482;10.006;2022-10-16T00:35:42;14.30;99.90
5792;DHT22;2922;53.482;10.006;2022-10-16T00:38:09;14.20;99.90
5792;DHT22;2922;53.482;10.006;2022-10-16T00:40:34;14.20;99.90
5792;DHT22;2922;53.482;10.006;2022-10-16T00:43:00;14.20;99.90
5792;DHT22;2922;53.482;10.006;2022-10-16T00:45:25;14.10;99.90
5792;DHT22;2922;53.482;10.006;2022-10-16T00:47:52;14.10;99.90
5792;DHT22;2922;53.482;10.006;2022-10-16T00:50:30;14.00;99.90
5792;DHT22;2922;53.482;10.006;2022-10-16T00:52:57;14.00;99.90
5792;DHT22;2922;53.482;10.006;2022-10-16T00:55:24;14.00;99.90
5792;DHT22;2922;53.482;10.006;2022-10-16T00:57:51;14.00;99.90
5792;DHT22;2922;53.482;10.006;2022-10-16T01:00:26;13.90;99.90
5792;DHT22;2922;53.482;10.006;2022-10-16T01:02:57;14.00;99.90
5792;DHT22;2922;53.482;10.006;2022-10-16T01:05:29;13.90;99.90
5792;DHT22;2922;53.482;10.006;2022-10-16T01:08:07;13.90;99.90
5792;DHT22;2922;53.482;10.006;2022-10-16T01:10:54;13.90;99.90
5792;DHT22;2922;53.482;10.006;2022-10-16T01:13:27;13.90;99.90
5792;DHT22;2922;53.482;10.006;2022-10-16T01:16:18;13.80;99.90
5792;DHT22;2922;53.482;10.006;2022-10-16T01:18:59;13.80;99.90
5792;DHT22;2922;53.482;10.006;2022-10-16T01:21:36;13.80;99.90
5792;DHT22;2922;53.482;10.006;2022-10-16T01:32:38;13.60;99.90
5792;DHT22;2922;53.482;10.006;2022-10-16T01:35:13;13.60;99.90
5792;DHT22;2922;53.482;10.006;2022-10-16T01:40:17;13.60;99.90
5792;DHT22;2922;53.482;10.006;2022-10-16T01:42:55;13.60;99.90
5792;DHT22;2922;53.482;10.006;2022-10-16T01:45:22;13.50;99.90
5792;DHT22;2922;53.482;10.006;2022-10-16T01:47:49;13.50;99.90
5792;DHT22;2922;53.482;10.006;2022-10-16T01:50:18;13.50;99.90
5792;DHT22;2922;53.482;10.006;2022-10-16T01:52:46;13.50;99.90
5792;DHT22;2922;53.482;10.006;2022-10-16T01:55:17;13.50;99.90
5792;DHT22;2922;53.482;10.006;2022-10-16T01:57:46;13.40;99.90
5792;DHT22;2922;53.482;10.006;2022-10-16T02:00:15;13.50;99.90
5792;DHT22;2922;53.482;10.006;2022-10-16T02:02:45;13.40;99.90
5792;DHT22;2922;53.482;10.006;2022-10-16T02:05:27;13.40;99.90
5792;DHT22;2922;53.482;10.006;2022-10-16T02:07:53;13.40;99.90
5792;DHT22;2922;53.482;10.006;2022-10-16T02:10:19;13.40;99.90
5792;DHT22;2922;53.482;10.006;2022-10-16T02:12:50;13.30;99.90
5792;DHT22;2922;53.482;10.006;2022-10-16T02:15:17;13.40;99.90
5792;DHT22;2922;53.482;10.006;2022-10-16T02:17:43;13.30;99.90
5792;DHT22;2922;53.482;10.006;2022-10-16T02:20:09;13.30;99.90
5792;DHT22;2922;53.482;10.006;2022-10-16T02:22:42;13.30;99.90
5792;DHT22;2922;53.482;10.006;2022-10-16T02:25:13;13.30;99.90
5792;DHT22;2922;53.482;10.006;2022-10-16T02:27:45;13.20;99.90
5792;DHT22;2922;53.482;10.006;2022-10-16T02:30:27;13.20;99.90
5792;DHT22;2922;53.482;10.006;2022-10-16T02:32:56;13.20;99.90
5792;DHT22;2922;53.482;10.006;2022-10-16T02:35:24;13.10;99.90
5792;DHT22;2922;53.482;10.006;2022-10-16T02:37:50;13.10;99.90
5792;DHT22;2922;53.482;10.006;2022-10-16T02:40:18;13.10;99.90
5792;DHT22;2922;53.482;10.006;2022-10-16T02:42:44;13.10;99.90
5792;DHT22;2922;53.482;10.006;2022-10-16T02:45:11;13.00;99.90
5792;DHT22;2922;53.482;10.006;2022-10-16T02:47:37;13.10;99.90
5792;DHT22;2922;53.482;10.006;2022-10-16T02:50:03;13.00;99.90
5792;DHT22;2922;53.482;10.006;2022-10-16T02:52:29;13.00;99.90
5792;DHT22;2922;53.482;10.006;2022-10-16T02:54:54;12.90;99.90
5792;DHT22;2922;53.482;10.006;2022-10-16T02:57:20;12.90;99.90
5792;DHT22;2922;53.482;10.006;2022-10-16T02:59:46;12.90;99.90
5792;DHT22;2922;53.482;10.006;2022-10-16T03:02:11;12.90;99.90
5792;DHT22;2922;53.482;10.006;2022-10-16T03:04:37;12.80;99.90
5792;DHT22;2922;53.482;10.006;2022-10-16T03:07:03;12.80;99.90
5792;DHT22;2922;53.482;10.006;2022-10-16T03:09:29;12.80;99.90
5792;DHT22;2922;53.482;10.006;2022-10-16T03:11:54;12.70;99.90
5792;DHT22;2922;53.482;10.006;2022-10-16T03:14:20;12.70;99.90
5792;DHT22;2922;53.482;10.006;2022-10-16T03:16:46;12.60;99.90
5792;DHT22;2922;53.482;10.006;2022-10-16T03:19:11;12.60;99.90
5792;DHT22;2922;53.482;10.006;2022-10-16T03:21:37;12.60;99.90
5792;DHT22;2922;53.482;10.006;2022-10-16T03:24:03;12.60;99.90
5792;DHT22;2922;53.482;10.006;2022-10-16T03:26:28;12.50;99.90
5792;DHT22;2922;53.482;10.006;2022-10-16T03:28:54;12.50;99.90
5792;DHT22;2922;53.482;10.006;2022-10-16T03:31:19;12.50;99.90
5792;DHT22;2922;53.482;10.006;2022-10-16T03:33:45;12.50;99.90
5792;DHT22;2922;53.482;10.006;2022-10-16T03:36:10;12.40;99.90
5792;DHT22;2922;53.482;10.006;2022-10-16T03:38:36;12.40;99.90
5792;DHT22;2922;53.482;10.006;2022-10-16T03:41:02;12.40;99.90
5792;DHT22;2922;53.482;10.006;2022-10-16T03:43:27;12.50;99.90
5792;DHT22;2922;53.482;10.006;2022-10-16T03:45:53;12.40;99.90
5792;DHT22;2922;53.482;10.006;2022-10-16T03:48:19;12.30;99.90
5792;DHT22;2922;53.482;10.006;2022-10-16T03:50:45;12.30;99.90
5792;DHT22;2922;53.482;10.006;2022-10-16T03:53:13;12.30;99.90
5792;DHT22;2922;53.482;10.006;2022-10-16T03:55:41;12.30;99.90
5792;DHT22;2922;53.482;10.006;2022-10-16T03:58:07;12.30;99.90
5792;DHT22;2922;53.482;10.006;2022-10-16T04:00:32;12.40;99.90
5792;DHT22;2922;53.482;10.006;2022-10-16T04:02:58;12.30;99.90
5792;DHT22;2922;53.482;10.006;2022-10-16T04:05:24;12.30;99.90
5792;DHT22;2922;53.482;10.006;2022-10-16T04:07:49;12.30;99.90
5792;DHT22;2922;53.482;10.006;2022-10-16T04:10:15;12.30;99.90
5792;DHT22;2922;53.482;10.006;2022-10-16T04:12:40;12.30;99.90
5792;DHT22;2922;53.482;10.006;2022-10-16T04:15:06;12.30;99.90
5792;DHT22;2922;53.482;10.006;2022-10-16T04:17:32;12.30;99.90
5792;DHT22;2922;53.482;10.006;2022-10-16T04:19:57;12.20;99.90
5792;DHT22;2922;53.482;10.006;2022-10-16T04:22:23;12.20;99.90
5792;DHT22;2922;53.482;10.006;2022-10-16T04:24:48;12.20;99.90
5792;DHT22;2922;53.482;10.006;2022-10-16T04:27:14;12.30;99.90
5792;DHT22;2922;53.482;10.006;2022-10-16T04:29:40;12.20;99.90
5792;DHT22;2922;53.482;10.006;2022-10-16T04:32:06;12.20;99.90
5792;DHT22;2922;53.482;10.006;2022-10-16T04:34:33;12.10;99.90
5792;DHT22;2922;53.482;10.006;2022-10-16T04:36:58;12.10;99.90
5792;DHT22;2922;53.482;10.006;2022-10-16T04:39:24;12.10;99.90
5792;DHT22;2922;53.482;10.006;2022-10-16T04:41:49;12.10;99.90
5792;DHT22;2922;53.482;10.006;2022-10-16T04:44:15;12.10;99.90
5792;DHT22;2922;53.482;10.006;2022-10-16T04:46:40;12.10;99.90
5792;DHT22;2922;53.482;10.006;2022-10-16T04:49:06;12.10;99.90
5792;DHT22;2922;53.482;10.006;2022-10-16T04:51:31;12.10;99.90
5792;DHT22;2922;53.482;10.006;2022-10-16T04:53:57;12.10;99.90
5792;DHT22;2922;53.482;10.006;2022-10-16T04:56:23;12.10;99.90
5792;DHT22;2922;53.482;10.006;2022-10-16T04:58:49;12.10;99.90
5792;DHT22;2922;53.482;10.006;2022-10-16T05:01:15;12.00;99.90
5792;DHT22;2922;53.482;10.006;2022-10-16T05:03:40;12.00;99.90
5792;DHT22;2922;53.482;10.006;2022-10-16T05:06:06;12.00;99.90
5792;DHT22;2922;53.482;10.006;2022-10-16T05:08:32;12.00;99.90
5792;DHT22;2922;53.482;10.006;2022-10-16T05:10:58;12.00;99.90
5792;DHT22;2922;53.482;10.006;2022-10-16T05:13:24;12.00;99.90
5792;DHT22;2922;53.482;10.006;2022-10-16T05:15:50;12.00;99.90
5792;DHT22;2922;53.482;10.006;2022-10-16T05:18:16;12.00;99.90
5792;DHT22;2922;53.482;10.006;2022-10-16T05:20:42;12.00;99.90
5792;DHT22;2922;53.482;10.006;2022-10-16T05:23:07;12.00;99.90
5792;DHT22;2922;53.482;10.006;2022-10-16T05:25:35;12.00;99.90
5792;DHT22;2922;53.482;10.006;2022-10-16T05:28:01;12.00;99.90
5792;DHT22;2922;53.482;10.006;2022-10-16T05:30:26;12.00;99.90
5792;DHT22;2922;53.482;10.006;2022-10-16T05:32:52;12.00;99.90
5792;DHT22;2922;53.482;10.006;2022-10-16T05:35:18;11.90;99.90
5792;DHT22;2922;53.482;10.006;2022-10-16T05:37:45;12.00;99.90
5792;DHT22;2922;53.482;10.006;2022-10-16T05:40:10;12.00;99.90
5792;DHT22;2922;53.482;10.006;2022-10-16T05:42:37;12.00;99.90
5792;DHT22;2922;53.482;10.006;2022-10-16T05:45:04;12.00;99.90
5792;DHT22;2922;53.482;10.006;2022-10-16T05:47:29;12.00;99.90
5792;DHT22;2922;53.482;10.006;2022-10-16T05:49:55;11.90;99.90
5792;DHT22;2922;53.482;10.006;2022-10-16T05:52:20;11.90;99.90
5792;DHT22;2922;53.482;10.006;2022-10-16T05:54:46;11.90;99.90
5792;DHT22;2922;53.482;10.006;2022-10-16T05:57:11;11.90;99.90
5792;DHT22;2922;53.482;10.006;2022-10-16T05:59:37;11.90;99.90
5792;DHT22;2922;53.482;10.006;2022-10-16T06:02:03;11.90;99.90
5792;DHT22;2922;53.482;10.006;2022-10-16T06:04:28;11.90;99.90
5792;DHT22;2922;53.482;10.006;2022-10-16T06:06:54;11.90;99.90
5792;DHT22;2922;53.482;10.006;2022-10-16T06:09:23;11.90;99.90
5792;DHT22;2922;53.482;10.006;2022-10-16T06:11:48;11.90;99.90
5792;DHT22;2922;53.482;10.006;2022-10-16T06:14:14;11.90;99.90
5792;DHT22;2922;53.482;10.006;2022-10-16T06:16:39;12.00;99.90
5792;DHT22;2922;53.482;10.006;2022-10-16T06:19:05;12.00;99.90
5792;DHT22;2922;53.482;10.006;2022-10-16T06:21:34;12.00;99.90
5792;DHT22;2922;53.482;10.006;2022-10-16T06:24:00;12.00;99.90
5792;DHT22;2922;53.482;10.006;2022-10-16T06:26:28;12.00;99.90
5792;DHT22;2922;53.482;10.006;2022-10-16T06:28:55;12.00;99.90
5792;DHT22;2922;53.482;10.006;2022-10-16T06:31:21;12.00;99.90
5792;DHT22;2922;53.482;10.006;2022-10-16T06:33:50;12.00;99.90
5792;DHT22;2922;53.482;10.006;2022-10-16T06:36:16;12.00;99.90
5792;DHT22;2922;53.482;10.006;2022-10-16T06:38:42;12.00;99.90
5792;DHT22;2922;53.482;10.006;2022-10-16T06:41:12;12.10;99.90
5792;DHT22;2922;53.482;10.006;2022-10-16T06:43:38;12.10;99.90
5792;DHT22;2922;53.482;10.006;2022-10-16T06:46:06;12.10;99.90
5792;DHT22;2922;53.482;10.006;2022-10-16T06:48:33;12.10;99.90
5792;DHT22;2922;53.482;10.006;2022-10-16T06:51:25;12.10;99.90
5792;DHT22;2922;53.482;10.006;2022-10-16T06:53:52;12.20;99.90
5792;DHT22;2922;53.482;10.006;2022-10-16T06:56:26;12.20;99.90
5792;DHT22;2922;53.482;10.006;2022-10-16T06:58:52;12.20;99.90
5792;DHT22;2922;53.482;10.006;2022-10-16T07:01:20;12.30;99.90
5792;DHT22;2922;53.482;10.006;2022-10-16T07:03:46;12.30;99.90
5792;DHT22;2922;53.482;10.006;2022-10-16T07:06:19;12.40;99.90
5792;DHT22;2922;53.482;10.006;2022-10-16T07:08:46;12.50;99.90
5792;DHT22;2922;53.482;10.006;2022-10-16T07:11:14;12.60;99.90
5792;DHT22;2922;53.482;10.006;2022-10-16T07:13:41;12.80;99.90
5792;DHT22;2922;53.482;10.006;2022-10-16T07:16:15;12.90;99.90
5792;DHT22;2922;53.482;10.006;2022-10-16T07:18:43;13.00;99.90
5792;DHT22;2922;53.482;10.006;2022-10-16T07:21:16;13.20;99.90
5792;DHT22;2922;53.482;10.006;2022-10-16T07:23:42;13.30;99.90
5792;DHT22;2922;53.482;10.006;2022-10-16T07:26:08;13.40;99.90
5792;DHT22;2922;53.482;10.006;2022-10-16T07:28:35;13.50;99.90
5792;DHT22;2922;53.482;10.006;2022-10-16T07:31:04;13.70;99.90
5792;DHT22;2922;53.482;10.006;2022-10-16T07:33:31;13.80;99.90
5792;DHT22;2922;53.482;10.006;2022-10-16T07:35:56;13.80;99.90
5792;DHT22;2922;53.482;10.006;2022-10-16T07:38:23;13.80;99.90
5792;DHT22;2922;53.482;10.006;2022-10-16T07:40:55;13.80;99.90
5792;DHT22;2922;53.482;10.006;2022-10-16T07:43:21;13.90;99.90
5792;DHT22;2922;53.482;10.006;2022-10-16T07:45:50;14.00;99.90
5792;DHT22;2922;53.482;10.006;2022-10-16T07:48:16;14.10;99.90
5792;DHT22;2922;53.482;10.006;2022-10-16T07:50:43;14.20;99.90
5792;DHT22;2922;53.482;10.006;2022-10-16T07:53:08;14.30;99.90
5792;DHT22;2922;53.482;10.006;2022-10-16T07:55:34;14.60;99.90
5792;DHT22;2922;53.482;10.006;2022-10-16T07:57:59;14.90;99.90
5792;DHT22;2922;53.482;10.006;2022-10-16T08:00:25;15.00;99.90
5792;DHT22;2922;53.482;10.006;2022-10-16T08:02:51;15.10;99.90
5792;DHT22;2922;53.482;10.006;2022-10-16T08:05:16;15.10;99.90
5792;DHT22;2922;53.482;10.006;2022-10-16T08:07:42;15.20;99.90
5792;DHT22;2922;53.482;10.006;2022-10-16T08:10:16;15.30;99.90
5792;DHT22;2922;53.482;10.006;2022-10-16T08:12:42;15.30;99.90
5792;DHT22;2922;53.482;10.006;2022-10-16T08:15:08;15.40;99.90
5792;DHT22;2922;53.482;10.006;2022-10-16T08:17:34;15.40;99.90
5792;DHT22;2922;53.482;10.006;2022-10-16T08:19:59;15.40;99.90
5792;DHT22;2922;53.482;10.006;2022-10-16T08:22:25;15.30;99.90
5792;DHT22;2922;53.482;10.006;2022-10-16T08:24:50;15.30;99.90
5792;DHT22;2922;53.482;10.006;2022-10-16T08:27:16;15.30;99.90
5792;DHT22;2922;53.482;10.006;2022-10-16T08:29:41;15.40;99.90
5792;DHT22;2922;53.482;10.006;2022-10-16T08:32:07;15.50;99.90
5792;DHT22;2922;53.482;10.006;2022-10-16T08:34:32;15.70;99.90
5792;DHT22;2922;53.482;10.006;2022-10-16T08:36:58;15.70;99.90
5792;DHT22;2922;53.482;10.006;2022-10-16T08:39:23;15.80;99.90
5792;DHT22;2922;53.482;10.006;2022-10-16T08:42:27;15.90;99.90
5792;DHT22;2922;53.482;10.006;2022-10-16T08:45:15;16.10;99.90
5792;DHT22;2922;53.482;10.006;2022-10-16T08:47:50;16.20;99.90
5792;DHT22;2922;53.482;10.006;2022-10-16T08:50:25;16.40;99.90
5792;DHT22;2922;53.482;10.006;2022-10-16T08:52:53;16.50;99.90
5792;DHT22;2922;53.482;10.006;2022-10-16T08:57:49;16.80;99.90
5792;DHT22;2922;53.482;10.006;2022-10-16T09:00:15;16.90;99.90
5792;DHT22;2922;53.482;10.006;2022-10-16T09:02:59;17.00;99.90
5792;DHT22;2922;53.482;10.006;2022-10-16T09:11:30;17.50;99.90
5792;DHT22;2922;53.482;10.006;2022-10-16T09:16:46;17.80;99.90
5792;DHT22;2922;53.482;10.006;2022-10-16T09:19:23;18.10;99.90
5792;DHT22;2922;53.482;10.006;2022-10-16T09:21:49;18.20;99.90
5792;DHT22;2922;53.482;10.006;2022-10-16T09:24:21;18.30;99.90
5792;DHT22;2922;53.482;10.006;2022-10-16T09:26:47;18.40;99.90
5792;DHT22;2922;53.482;10.006;2022-10-16T09:29:19;18.40;99.90
5792;DHT22;2922;53.482;10.006;2022-10-16T09:31:50;18.30;99.90
5792;DHT22;2922;53.482;10.006;2022-10-16T09:36:56;18.40;99.90
5792;DHT22;2922;53.482;10.006;2022-10-16T09:39:22;18.50;99.90
5792;DHT22;2922;53.482;10.006;2022-10-16T09:41:48;18.50;99.90
5792;DHT22;2922;53.482;10.006;2022-10-16T09:44:28;18.40;99.90
5792;DHT22;2922;53.482;10.006;2022-10-16T09:47:01;18.20;99.90
5792;DHT22;2922;53.482;10.006;2022-10-16T09:49:27;18.20;99.90
5792;DHT22;2922;53.482;10.006;2022-10-16T09:52:11;18.50;99.90
5792;DHT22;2922;53.482;10.006;2022-10-16T09:54:37;18.30;99.90
5792;DHT22;2922;53.482;10.006;2022-10-16T09:57:07;18.10;99.90
5792;DHT22;2922;53.482;10.006;2022-10-16T09:59:46;18.30;99.90
5792;DHT22;2922;53.482;10.006;2022-10-16T10:02:14;18.50;99.90
5792;DHT22;2922;53.482;10.006;2022-10-16T10:04:47;18.70;99.90
5792;DHT22;2922;53.482;10.006;2022-10-16T10:07:20;18.90;99.90
5792;DHT22;2922;53.482;10.006;2022-10-16T10:09:48;19.00;99.90
5792;DHT22;2922;53.482;10.006;2022-10-16T10:12:40;18.80;99.90
5792;DHT22;2922;53.482;10.006;2022-10-16T10:15:10;18.80;99.90
5792;DHT22;2922;53.482;10.006;2022-10-16T10:17:46;18.90;99.90
5792;DHT22;2922;53.482;10.006;2022-10-16T10:20:28;19.00;99.90
5792;DHT22;2922;53.482;10.006;2022-10-16T10:22:55;19.20;99.90
5792;DHT22;2922;53.482;10.006;2022-10-16T10:25:45;19.20;99.90
5792;DHT22;2922;53.482;10.006;2022-10-16T10:28:38;19.30;99.90
5792;DHT22;2922;53.482;10.006;2022-10-16T10:31:25;19.40;99.90
5792;DHT22;2922;53.482;10.006;2022-10-16T10:33:59;19.40;99.90
5792;DHT22;2922;53.482;10.006;2022-10-16T10:36:38;19.40;99.90
5792;DHT22;2922;53.482;10.006;2022-10-16T10:39:17;19.60;99.90
5792;DHT22;2922;53.482;10.006;2022-10-16T11:08:49;19.90;99.90
5792;DHT22;2922;53.482;10.006;2022-10-16T11:11:26;19.90;99.90
5792;DHT22;2922;53.482;10.006;2022-10-16T11:19:25;20.20;99.90
5792;DHT22;2922;53.482;10.006;2022-10-16T11:22:21;20.00;99.90
5792;DHT22;2922;53.482;10.006;2022-10-16T11:24:58;20.00;99.90
5792;DHT22;2922;53.482;10.006;2022-10-16T11:27:44;19.90;99.90
5792;DHT22;2922;53.482;10.006;2022-10-16T11:30:26;20.10;99.90
5792;DHT22;2922;53.482;10.006;2022-10-16T11:33:32;20.00;99.90
5792;DHT22;2922;53.482;10.006;2022-10-16T11:36:14;20.00;99.90
5792;DHT22;2922;53.482;10.006;2022-10-16T11:39:02;20.10;99.90
5792;DHT22;2922;53.482;10.006;2022-10-16T11:41:47;20.20;99.90
5792;DHT22;2922;53.482;10.006;2022-10-16T11:46:53;20.40;99.90
5792;DHT22;2922;53.482;10.006;2022-10-16T11:49:24;20.10;99.90
5792;DHT22;2922;53.482;10.006;2022-10-16T11:52:03;19.90;99.90
5792;DHT22;2922;53.482;10.006;2022-10-16T11:57:21;19.80;99.90
5792;DHT22;2922;53.482;10.006;2022-10-16T12:07:49;19.40;99.90
5792;DHT22;2922;53.482;10.006;2022-10-16T12:10:20;19.40;99.90
5792;DHT22;2922;53.482;10.006;2022-10-16T12:12:46;19.60;99.90
5792;DHT22;2922;53.482;10.006;2022-10-16T12:15:27;19.70;99.90
5792;DHT22;2922;53.482;10.006;2022-10-16T12:17:53;19.80;99.90
5792;DHT22;2922;53.482;10.006;2022-10-16T12:20:25;20.00;99.90
5792;DHT22;2922;53.482;10.006;2022-10-16T12:22:56;20.30;99.90
5792;DHT22;2922;53.482;10.006;2022-10-16T12:25:32;20.50;99.90
5792;DHT22;2922;53.482;10.006;2022-10-16T12:28:05;20.40;99.90
5792;DHT22;2922;53.482;10.006;2022-10-16T12:30:34;20.20;99.90
5792;DHT22;2922;53.482;10.006;2022-10-16T12:33:05;20.20;99.90
5792;DHT22;2922;53.482;10.006;2022-10-16T12:35:34;20.00;99.90
5792;DHT22;2922;53.482;10.006;2022-10-16T12:38:18;19.80;99.90
5792;DHT22;2922;53.482;10.006;2022-10-16T12:40:57;19.50;99.90
5792;DHT22;2922;53.482;10.006;2022-10-16T12:43:39;19.20;99.90
5792;DHT22;2922;53.482;10.006;2022-10-16T12:48:41;19.00;99.90
5792;DHT22;2922;53.482;10.006;2022-10-16T12:54:04;18.90;99.90
5792;DHT22;2922;53.482;10.006;2022-10-16T13:04:45;18.60;99.90
5792;DHT22;2922;53.482;10.006;2022-10-16T13:21:44;18.20;99.90
5792;DHT22;2922;53.482;10.006;2022-10-16T13:27:07;18.10;99.90
5792;DHT22;2922;53.482;10.006;2022-10-16T13:29:34;18.10;99.90
5792;DHT22;2922;53.482;10.006;2022-10-16T13:32:06;17.90;99.90
5792;DHT22;2922;53.482;10.006;2022-10-16T13:34:32;17.90;99.90
5792;DHT22;2922;53.482;10.006;2022-10-16T13:36:57;17.90;99.90
5792;DHT22;2922;53.482;10.006;2022-10-16T13:39:28;17.80;99.90
5792;DHT22;2922;53.482;10.006;2022-10-16T13:44:49;17.80;99.90
5792;DHT22;2922;53.482;10.006;2022-10-16T13:47:17;17.70;99.90
5792;DHT22;2922;53.482;10.006;2022-10-16T13:49:43;17.70;99.90
5792;DHT22;2922;53.482;10.006;2022-10-16T13:52:18;17.70;99.90
5792;DHT22;2922;53.482;10.006;2022-10-16T13:54:44;17.80;99.90
5792;DHT22;2922;53.482;10.006;2022-10-16T13:57:14;18.00;99.90
5792;DHT22;2922;53.482;10.006;2022-10-16T13:59:40;18.20;99.90
5792;DHT22;2922;53.482;10.006;2022-10-16T14:02:25;18.30;99.90
5792;DHT22;2922;53.482;10.006;2022-10-16T14:04:53;18.50;99.90
5792;DHT22;2922;53.482;10.006;2022-10-16T14:07:31;18.70;99.90
5792;DHT22;2922;53.482;10.006;2022-10-16T14:10:01;18.60;99.90
5792;DHT22;2922;53.482;10.006;2022-10-16T14:12:27;18.80;99.90
5792;DHT22;2922;53.482;10.006;2022-10-16T14:14:54;18.90;99.90
5792;DHT22;2922;53.482;10.006;2022-10-16T14:17:29;18.90;99.90
5792;DHT22;2922;53.482;10.006;2022-10-16T14:19:58;18.80;99.90
5792;DHT22;2922;53.482;10.006;2022-10-16T14:24:56;18.70;99.90
5792;DHT22;2922;53.482;10.006;2022-10-16T14:27:35;18.70;99.90
5792;DHT22;2922;53.482;10.006;2022-10-16T14:32:36;18.60;99.90
5792;DHT22;2922;53.482;10.006;2022-10-16T14:35:02;18.50;99.90
5792;DHT22;2922;53.482;10.006;2022-10-16T14:37:29;18.40;99.90
5792;DHT22;2922;53.482;10.006;2022-10-16T14:39:55;18.40;99.90
5792;DHT22;2922;53.482;10.006;2022-10-16T14:42:23;18.30;99.90
5792;DHT22;2922;53.482;10.006;2022-10-16T14:44:51;18.40;99.90
5792;DHT22;2922;53.482;10.006;2022-10-16T14:47:22;18.30;99.90
5792;DHT22;2922;53.482;10.006;2022-10-16T14:49:52;18.30;99.90
5792;DHT22;2922;53.482;10.006;2022-10-16T14:52:20;18.20;99.90
5792;DHT22;2922;53.482;10.006;2022-10-16T14:54:48;18.20;99.90
5792;DHT22;2922;53.482;10.006;2022-10-16T14:57:27;18.20;99.90
5792;DHT22;2922;53.482;10.006;2022-10-16T14:59:55;18.10;99.90
5792;DHT22;2922;53.482;10.006;2022-10-16T15:02:28;18.10;99.90
5792;DHT22;2922;53.482;10.006;2022-10-16T15:04:55;18.00;99.90
5792;DHT22;2922;53.482;10.006;2022-10-16T15:07:21;18.00;99.90
5792;DHT22;2922;53.482;10.006;2022-10-16T15:09:47;17.90;99.90
5792;DHT22;2922;53.482;10.006;2022-10-16T15:12:12;17.90;99.90
5792;DHT22;2922;53.482;10.006;2022-10-16T15:14:38;17.90;99.90
5792;DHT22;2922;53.482;10.006;2022-10-16T15:17:03;17.80;99.90
5792;DHT22;2922;53.482;10.006;2022-10-16T15:19:29;17.80;99.90
5792;DHT22;2922;53.482;10.006;2022-10-16T15:21:55;17.70;99.90
5792;DHT22;2922;53.482;10.006;2022-10-16T15:24:21;17.60;99.90
5792;DHT22;2922;53.482;10.006;2022-10-16T15:26:46;17.50;99.90
5792;DHT22;2922;53.482;10.006;2022-10-16T15:29:12;17.50;99.90
5792;DHT22;2922;53.482;10.006;2022-10-16T15:31:38;17.40;99.90
5792;DHT22;2922;53.482;10.006;2022-10-16T15:34:04;17.40;99.90
5792;DHT22;2922;53.482;10.006;2022-10-16T15:36:35;17.40;99.90
5792;DHT22;2922;53.482;10.006;2022-10-16T15:39:20;17.30;99.90
5792;DHT22;2922;53.482;10.006;2022-10-16T15:41:47;17.30;99.90
5792;DHT22;2922;53.482;10.006;2022-10-16T15:44:19;17.20;99.90
5792;DHT22;2922;53.482;10.006;2022-10-16T15:46:45;17.10;99.90
5792;DHT22;2922;53.482;10.006;2022-10-16T15:49:11;17.10;99.90
5792;DHT22;2922;53.482;10.006;2022-10-16T15:51:38;17.10;99.90
5792;DHT22;2922;53.482;10.006;2022-10-16T15:54:04;17.10;99.90
5792;DHT22;2922;53.482;10.006;2022-10-16T15:56:30;16.90;99.90
5792;DHT22;2922;53.482;10.006;2022-10-16T15:59:01;16.90;99.90
5792;DHT22;2922;53.482;10.006;2022-10-16T16:01:27;16.90;99.90
5792;DHT22;2922;53.482;10.006;2022-10-16T16:03:55;16.80;99.90
5792;DHT22;2922;53.482;10.006;2022-10-16T16:06:22;16.70;99.90
5792;DHT22;2922;53.482;10.006;2022-10-16T16:08:51;16.70;99.90
5792;DHT22;2922;53.482;10.006;2022-10-16T16:11:17;16.60;99.90
5792;DHT22;2922;53.482;10.006;2022-10-16T16:13:43;16.50;99.90
5792;DHT22;2922;53.482;10.006;2022-10-16T16:16:10;16.50;99.90
5792;DHT22;2922;53.482;10.006;2022-10-16T16:18:36;16.50;99.90
5792;DHT22;2922;53.482;10.006;2022-10-16T16:21:03;16.40;99.90
5792;DHT22;2922;53.482;10.006;2022-10-16T16:23:29;16.30;99.90
5792;DHT22;2922;53.482;10.006;2022-10-16T16:26:07;16.20;99.90
5792;DHT22;2922;53.482;10.006;2022-10-16T16:28:35;16.20;99.90
5792;DHT22;2922;53.482;10.006;2022-10-16T16:31:02;16.00;99.90
5792;DHT22;2922;53.482;10.006;2022-10-16T16:33:27;16.00;99.90
5792;DHT22;2922;53.482;10.006;2022-10-16T16:35:58;16.00;99.90
5792;DHT22;2922;53.482;10.006;2022-10-16T16:38:23;15.90;99.90
5792;DHT22;2922;53.482;10.006;2022-10-16T16:40:49;15.80;99.90
5792;DHT22;2922;53.482;10.006;2022-10-16T16:43:15;15.70;99.90
5792;DHT22;2922;53.482;10.006;2022-10-16T16:45:40;15.60;99.90
5792;DHT22;2922;53.482;10.006;2022-10-16T16:48:06;15.60;99.90
5792;DHT22;2922;53.482;10.006;2022-10-16T16:50:35;15.50;99.90
5792;DHT22;2922;53.482;10.006;2022-10-16T16:53:01;15.50;99.90
5792;DHT22;2922;53.482;10.006;2022-10-16T16:55:26;15.40;99.90
5792;DHT22;2922;53.482;10.006;2022-10-16T16:57:52;15.30;99.90
5792;DHT22;2922;53.482;10.006;2022-10-16T17:00:18;15.20;99.90
5792;DHT22;2922;53.482;10.006;2022-10-16T17:02:43;15.20;99.90
5792;DHT22;2922;53.482;10.006;2022-10-16T17:05:10;15.10;99.90
5792;DHT22;2922;53.482;10.006;2022-10-16T17:07:35;15.00;99.90
5792;DHT22;2922;53.482;10.006;2022-10-16T17:10:02;15.00;99.90
5792;DHT22;2922;53.482;10.006;2022-10-16T17:12:29;14.90;99.90
5792;DHT22;2922;53.482;10.006;2022-10-16T17:14:55;14.80;99.90
5792;DHT22;2922;53.482;10.006;2022-10-16T17:17:20;14.80;99.90
5792;DHT22;2922;53.482;10.006;2022-10-16T17:19:48;14.60;99.90
5792;DHT22;2922;53.482;10.006;2022-10-16T17:22:14;14.60;99.90
5792;DHT22;2922;53.482;10.006;2022-10-16T17:24:39;14.60;99.90
5792;DHT22;2922;53.482;10.006;2022-10-16T17:27:05;14.50;99.90
5792;DHT22;2922;53.482;10.006;2022-10-16T17:29:30;14.40;99.90
5792;DHT22;2922;53.482;10.006;2022-10-16T17:31:56;14.30;99.90
5792;DHT22;2922;53.482;10.006;2022-10-16T17:34:23;14.20;99.90
5792;DHT22;2922;53.482;10.006;2022-10-16T17:36:49;14.20;99.90
5792;DHT22;2922;53.482;10.006;2022-10-16T17:39:16;14.10;99.90
5792;DHT22;2922;53.482;10.006;2022-10-16T17:41:45;14.10;99.90
5792;DHT22;2922;53.482;10.006;2022-10-16T17:44:12;13.90;99.90
5792;DHT22;2922;53.482;10.006;2022-10-16T17:46:45;13.90;99.90
5792;DHT22;2922;53.482;10.006;2022-10-16T17:49:12;13.80;99.90